sensor_id;sensor_type;location;lat;lon;timestamp;P1;durP1;ratioP1;P2;durP2;ratioP2
18720;SDS011;9489;50.948;3.114;2022-09-27T00:00:22;3.58;;;1.58;;
18720;SDS011;9489;50.948;3.114;2022-09-27T00:02:48;4.70;;;1.75;;
18720;SDS011;9489;50.948;3.114;2022-09-27T00:05:14;6.05;;;2.00;;
18720;SDS011;9489;50.948;3.114;2022-09-27T00:07:40;4.70;;;1.58;;
18720;SDS011;9489;50.948;3.114;2022-09-27T00:10:06;6.15;;;1.77;;
18720;SDS011;9489;50.948;3.114;2022-09-27T00:12:33;5.00;;;1.98;;
18720;SDS011;9489;50.948;3.114;2022-09-27T00:14:59;4.18;;;2.10;;
18720;SDS011;9489;50.948;3.114;2022-09-27T00:17:26;3.45;;;1.60;;
18720;SDS011;9489;50.948;3.114;2022-09-27T00:19:52;1.88;;;1.77;;
18720;SDS011;9489;50.948;3.114;2022-09-27T00:22:20;5.18;;;1.98;;
18720;SDS011;9489;50.948;3.114;2022-09-27T00:24:46;8.52;;;2.03;;
18720;SDS011;9489;50.948;3.114;2022-09-27T00:27:12;5.18;;;2.10;;
18720;SDS011;9489;50.948;3.114;2022-09-27T00:29:38;3.70;;;2.03;;
18720;SDS011;9489;50.948;3.114;2022-09-27T00:32:03;5.65;;;2.15;;
18720;SDS011;9489;50.948;3.114;2022-09-27T00:34:29;7.30;;;2.65;;
18720;SDS011;9489;50.948;3.114;2022-09-27T00:36:55;5.35;;;2.53;;
18720;SDS011;9489;50.948;3.114;2022-09-27T00:39:20;4.95;;;2.30;;
18720;SDS011;9489;50.948;3.114;2022-09-27T00:41:46;5.07;;;2.30;;
18720;SDS011;9489;50.948;3.114;2022-09-27T00:46:53;5.10;;;2.33;;
18720;SDS011;9489;50.948;3.114;2022-09-27T00:49:28;4.22;;;2.50;;
18720;SDS011;9489;50.948;3.114;2022-09-27T00:52:01;4.45;;;2.45;;
18720;SDS011;9489;50.948;3.114;2022-09-27T00:54:41;4.95;;;3.20;;
18720;SDS011;9489;50.948;3.114;2022-09-27T00:57:10;3.83;;;3.40;;
18720;SDS011;9489;50.948;3.114;2022-09-27T01:02:08;6.22;;;3.60;;
18720;SDS011;9489;50.948;3.114;2022-09-27T01:04:34;6.78;;;3.90;;
18720;SDS011;9489;50.948;3.114;2022-09-27T01:07:02;5.95;;;4.00;;
18720;SDS011;9489;50.948;3.114;2022-09-27T01:09:28;7.05;;;3.78;;
18720;SDS011;9489;50.948;3.114;2022-09-27T01:34:29;3.05;;;1.90;;
18720;SDS011;9489;50.948;3.114;2022-09-27T01:39:29;2.33;;;1.40;;
18720;SDS011;9489;50.948;3.114;2022-09-27T01:42:13;7.43;;;1.30;;
18720;SDS011;9489;50.948;3.114;2022-09-27T01:44:49;4.75;;;1.52;;
18720;SDS011;9489;50.948;3.114;2022-09-27T01:47:22;4.43;;;1.55;;
18720;SDS011;9489;50.948;3.114;2022-09-27T01:52:48;4.07;;;1.30;;
18720;SDS011;9489;50.948;3.114;2022-09-27T01:55:18;6.85;;;1.63;;
18720;SDS011;9489;50.948;3.114;2022-09-27T01:57:49;2.65;;;1.33;;
18720;SDS011;9489;50.948;3.114;2022-09-27T02:00:23;2.65;;;1.20;;
18720;SDS011;9489;50.948;3.114;2022-09-27T02:02:51;2.53;;;1.55;;
18720;SDS011;9489;50.948;3.114;2022-09-27T02:05:22;3.60;;;1.50;;
18720;SDS011;9489;50.948;3.114;2022-09-27T02:07:55;3.47;;;1.33;;
18720;SDS011;9489;50.948;3.114;2022-09-27T02:10:30;3.20;;;1.30;;
18720;SDS011;9489;50.948;3.114;2022-09-27T02:13:44;2.92;;;1.45;;
18720;SDS011;9489;50.948;3.114;2022-09-27T02:18:33;3.75;;;1.60;;
18720;SDS011;9489;50.948;3.114;2022-09-27T02:21:09;1.42;;;1.33;;
18720;SDS011;9489;50.948;3.114;2022-09-27T02:23:40;2.83;;;1.60;;
18720;SDS011;9489;50.948;3.114;2022-09-27T02:26:19;2.42;;;1.88;;
18720;SDS011;9489;50.948;3.114;2022-09-27T02:29:05;3.65;;;2.00;;
18720;SDS011;9489;50.948;3.114;2022-09-27T02:31:39;3.35;;;1.55;;
18720;SDS011;9489;50.948;3.114;2022-09-27T02:34:06;3.30;;;1.45;;
18720;SDS011;9489;50.948;3.114;2022-09-27T02:36:43;3.88;;;1.30;;
18720;SDS011;9489;50.948;3.114;2022-09-27T02:39:08;2.40;;;1.40;;
18720;SDS011;9489;50.948;3.114;2022-09-27T02:41:34;2.55;;;1.20;;
18720;SDS011;9489;50.948;3.114;2022-09-27T02:44:04;1.70;;;1.30;;
18720;SDS011;9489;50.948;3.114;2022-09-27T02:52:05;1.88;;;1.20;;
18720;SDS011;9489;50.948;3.114;2022-09-27T02:54:37;1.77;;;1.38;;
18720;SDS011;9489;50.948;3.114;2022-09-27T03:02:47;4.22;;;2.00;;
18720;SDS011;9489;50.948;3.114;2022-09-27T03:05:23;2.38;;;1.83;;
18720;SDS011;9489;50.948;3.114;2022-09-27T03:07:52;2.85;;;1.92;;
18720;SDS011;9489;50.948;3.114;2022-09-27T03:10:22;3.50;;;2.25;;
18720;SDS011;9489;50.948;3.114;2022-09-27T03:12:50;2.65;;;2.20;;
18720;SDS011;9489;50.948;3.114;2022-09-27T03:15:17;2.95;;;1.77;;
18720;SDS011;9489;50.948;3.114;2022-09-27T03:17:43;1.77;;;1.67;;
18720;SDS011;9489;50.948;3.114;2022-09-27T03:20:08;3.70;;;1.77;;
18720;SDS011;9489;50.948;3.114;2022-09-27T03:22:34;2.47;;;1.88;;
18720;SDS011;9489;50.948;3.114;2022-09-27T03:25:00;2.50;;;2.05;;
18720;SDS011;9489;50.948;3.114;2022-09-27T03:27:26;2.45;;;1.70;;
18720;SDS011;9489;50.948;3.114;2022-09-27T03:29:51;5.57;;;2.20;;
18720;SDS011;9489;50.948;3.114;2022-09-27T03:32:17;2.58;;;2.10;;
18720;SDS011;9489;50.948;3.114;2022-09-27T03:34:43;4.72;;;2.10;;
18720;SDS011;9489;50.948;3.114;2022-09-27T03:37:09;3.72;;;2.08;;
18720;SDS011;9489;50.948;3.114;2022-09-27T03:39:34;2.75;;;2.25;;
18720;SDS011;9489;50.948;3.114;2022-09-27T03:42:00;2.55;;;1.95;;
18720;SDS011;9489;50.948;3.114;2022-09-27T03:44:26;2.70;;;1.98;;
18720;SDS011;9489;50.948;3.114;2022-09-27T03:46:51;3.22;;;2.00;;
18720;SDS011;9489;50.948;3.114;2022-09-27T03:49:17;1.80;;;1.70;;
18720;SDS011;9489;50.948;3.114;2022-09-27T03:51:43;2.05;;;1.95;;
18720;SDS011;9489;50.948;3.114;2022-09-27T03:54:09;2.20;;;2.10;;
18720;SDS011;9489;50.948;3.114;2022-09-27T03:56:35;4.60;;;2.15;;
18720;SDS011;9489;50.948;3.114;2022-09-27T03:59:00;3.05;;;1.92;;
18720;SDS011;9489;50.948;3.114;2022-09-27T04:01:26;2.63;;;1.90;;
18720;SDS011;9489;50.948;3.114;2022-09-27T04:03:52;5.50;;;2.80;;
18720;SDS011;9489;50.948;3.114;2022-09-27T04:06:18;2.95;;;2.30;;
18720;SDS011;9489;50.948;3.114;2022-09-27T04:08:45;3.67;;;2.50;;
18720;SDS011;9489;50.948;3.114;2022-09-27T04:11:11;4.35;;;2.80;;
18720;SDS011;9489;50.948;3.114;2022-09-27T04:13:39;3.33;;;3.00;;
18720;SDS011;9489;50.948;3.114;2022-09-27T04:16:05;4.68;;;2.83;;
18720;SDS011;9489;50.948;3.114;2022-09-27T04:18:31;3.20;;;2.42;;
18720;SDS011;9489;50.948;3.114;2022-09-27T04:20:57;6.10;;;3.63;;
18720;SDS011;9489;50.948;3.114;2022-09-27T04:23:23;5.47;;;3.25;;
18720;SDS011;9489;50.948;3.114;2022-09-27T04:25:49;6.32;;;3.42;;
18720;SDS011;9489;50.948;3.114;2022-09-27T04:28:15;5.05;;;3.28;;
18720;SDS011;9489;50.948;3.114;2022-09-27T04:30:41;6.10;;;3.83;;
18720;SDS011;9489;50.948;3.114;2022-09-27T04:33:07;4.63;;;3.72;;
18720;SDS011;9489;50.948;3.114;2022-09-27T04:35:33;5.10;;;2.88;;
18720;SDS011;9489;50.948;3.114;2022-09-27T04:38:17;5.05;;;3.85;;
18720;SDS011;9489;50.948;3.114;2022-09-27T04:40:46;4.63;;;3.20;;
18720;SDS011;9489;50.948;3.114;2022-09-27T04:43:13;5.25;;;3.28;;
18720;SDS011;9489;50.948;3.114;2022-09-27T04:45:39;5.57;;;3.63;;
18720;SDS011;9489;50.948;3.114;2022-09-27T04:48:04;4.93;;;3.53;;
18720;SDS011;9489;50.948;3.114;2022-09-27T04:50:30;6.22;;;3.75;;
18720;SDS011;9489;50.948;3.114;2022-09-27T04:52:56;6.05;;;3.22;;
18720;SDS011;9489;50.948;3.114;2022-09-27T04:55:22;4.72;;;3.58;;
18720;SDS011;9489;50.948;3.114;2022-09-27T04:57:47;4.65;;;3.35;;
18720;SDS011;9489;50.948;3.114;2022-09-27T05:00:14;6.93;;;3.50;;
18720;SDS011;9489;50.948;3.114;2022-09-27T05:02:44;3.60;;;3.13;;
18720;SDS011;9489;50.948;3.114;2022-09-27T05:05:12;5.78;;;3.30;;
18720;SDS011;9489;50.948;3.114;2022-09-27T05:07:38;4.88;;;3.47;;
18720;SDS011;9489;50.948;3.114;2022-09-27T05:10:04;5.55;;;4.00;;
18720;SDS011;9489;50.948;3.114;2022-09-27T05:12:31;5.47;;;3.85;;
18720;SDS011;9489;50.948;3.114;2022-09-27T05:14:57;5.57;;;3.08;;
18720;SDS011;9489;50.948;3.114;2022-09-27T05:17:23;3.85;;;2.95;;
18720;SDS011;9489;50.948;3.114;2022-09-27T05:19:49;4.25;;;2.47;;
18720;SDS011;9489;50.948;3.114;2022-09-27T05:22:15;3.38;;;2.50;;
18720;SDS011;9489;50.948;3.114;2022-09-27T05:24:41;3.80;;;2.05;;
18720;SDS011;9489;50.948;3.114;2022-09-27T05:27:07;3.00;;;2.22;;
18720;SDS011;9489;50.948;3.114;2022-09-27T05:29:36;3.10;;;2.30;;
18720;SDS011;9489;50.948;3.114;2022-09-27T05:32:02;2.33;;;2.13;;
18720;SDS011;9489;50.948;3.114;2022-09-27T05:34:28;5.70;;;3.00;;
18720;SDS011;9489;50.948;3.114;2022-09-27T05:36:56;3.80;;;2.35;;
18720;SDS011;9489;50.948;3.114;2022-09-27T05:39:22;3.97;;;2.08;;
18720;SDS011;9489;50.948;3.114;2022-09-27T05:41:48;3.60;;;1.88;;
18720;SDS011;9489;50.948;3.114;2022-09-27T05:44:14;3.15;;;1.75;;
18720;SDS011;9489;50.948;3.114;2022-09-27T05:46:40;3.70;;;2.00;;
18720;SDS011;9489;50.948;3.114;2022-09-27T05:49:06;3.60;;;2.28;;
18720;SDS011;9489;50.948;3.114;2022-09-27T05:51:32;3.30;;;2.10;;
18720;SDS011;9489;50.948;3.114;2022-09-27T05:53:57;4.10;;;2.10;;
18720;SDS011;9489;50.948;3.114;2022-09-27T05:56:23;3.13;;;2.00;;
18720;SDS011;9489;50.948;3.114;2022-09-27T05:58:49;5.40;;;3.97;;
18720;SDS011;9489;50.948;3.114;2022-09-27T06:01:15;4.10;;;3.60;;
18720;SDS011;9489;50.948;3.114;2022-09-27T06:03:42;2.75;;;1.73;;
18720;SDS011;9489;50.948;3.114;2022-09-27T06:06:07;3.15;;;1.77;;
18720;SDS011;9489;50.948;3.114;2022-09-27T06:08:35;3.90;;;1.90;;
18720;SDS011;9489;50.948;3.114;2022-09-27T06:11:06;3.50;;;2.35;;
18720;SDS011;9489;50.948;3.114;2022-09-27T06:13:34;2.67;;;1.70;;
18720;SDS011;9489;50.948;3.114;2022-09-27T06:16:01;2.67;;;1.55;;
18720;SDS011;9489;50.948;3.114;2022-09-27T06:18:27;3.30;;;1.60;;
18720;SDS011;9489;50.948;3.114;2022-09-27T06:20:53;4.30;;;1.85;;
18720;SDS011;9489;50.948;3.114;2022-09-27T06:23:20;2.83;;;1.55;;
18720;SDS011;9489;50.948;3.114;2022-09-27T06:25:47;2.53;;;1.80;;
18720;SDS011;9489;50.948;3.114;2022-09-27T06:28:14;3.20;;;2.10;;
18720;SDS011;9489;50.948;3.114;2022-09-27T06:30:41;3.28;;;2.80;;
18720;SDS011;9489;50.948;3.114;2022-09-27T06:33:10;2.58;;;2.08;;
18720;SDS011;9489;50.948;3.114;2022-09-27T06:35:37;4.07;;;2.75;;
18720;SDS011;9489;50.948;3.114;2022-09-27T06:38:04;3.05;;;2.50;;
18720;SDS011;9489;50.948;3.114;2022-09-27T06:40:33;6.20;;;2.60;;
18720;SDS011;9489;50.948;3.114;2022-09-27T06:43:02;3.20;;;2.17;;
18720;SDS011;9489;50.948;3.114;2022-09-27T06:45:33;6.78;;;2.90;;
18720;SDS011;9489;50.948;3.114;2022-09-27T06:48:03;6.65;;;2.85;;
18720;SDS011;9489;50.948;3.114;2022-09-27T06:50:31;4.30;;;2.63;;
18720;SDS011;9489;50.948;3.114;2022-09-27T06:52:59;6.82;;;2.85;;
18720;SDS011;9489;50.948;3.114;2022-09-27T06:55:25;6.82;;;4.07;;
18720;SDS011;9489;50.948;3.114;2022-09-27T06:57:54;3.60;;;3.30;;
18720;SDS011;9489;50.948;3.114;2022-09-27T07:00:39;8.18;;;4.00;;
18720;SDS011;9489;50.948;3.114;2022-09-27T07:03:07;6.88;;;3.60;;
18720;SDS011;9489;50.948;3.114;2022-09-27T07:05:37;4.63;;;3.13;;
18720;SDS011;9489;50.948;3.114;2022-09-27T07:08:03;6.13;;;2.83;;
18720;SDS011;9489;50.948;3.114;2022-09-27T07:10:30;5.72;;;2.85;;
18720;SDS011;9489;50.948;3.114;2022-09-27T07:13:05;4.03;;;3.30;;
18720;SDS011;9489;50.948;3.114;2022-09-27T07:15:32;6.85;;;2.65;;
18720;SDS011;9489;50.948;3.114;2022-09-27T07:18:01;8.35;;;3.70;;
18720;SDS011;9489;50.948;3.114;2022-09-27T07:20:28;10.00;;;7.47;;
18720;SDS011;9489;50.948;3.114;2022-09-27T07:22:54;5.35;;;3.40;;
18720;SDS011;9489;50.948;3.114;2022-09-27T07:25:20;8.98;;;2.83;;
18720;SDS011;9489;50.948;3.114;2022-09-27T07:27:46;7.82;;;2.75;;
18720;SDS011;9489;50.948;3.114;2022-09-27T07:30:12;6.35;;;3.55;;
18720;SDS011;9489;50.948;3.114;2022-09-27T07:32:39;4.35;;;3.10;;
18720;SDS011;9489;50.948;3.114;2022-09-27T07:35:05;5.15;;;3.25;;
18720;SDS011;9489;50.948;3.114;2022-09-27T07:37:35;7.72;;;3.00;;
18720;SDS011;9489;50.948;3.114;2022-09-27T07:40:05;6.20;;;2.63;;
18720;SDS011;9489;50.948;3.114;2022-09-27T07:42:33;6.07;;;3.05;;
18720;SDS011;9489;50.948;3.114;2022-09-27T07:45:03;3.53;;;2.15;;
18720;SDS011;9489;50.948;3.114;2022-09-27T07:47:30;6.05;;;2.50;;
18720;SDS011;9489;50.948;3.114;2022-09-27T07:49:56;5.93;;;2.30;;
18720;SDS011;9489;50.948;3.114;2022-09-27T07:52:21;9.68;;;2.35;;
18720;SDS011;9489;50.948;3.114;2022-09-27T07:54:47;3.88;;;1.70;;
18720;SDS011;9489;50.948;3.114;2022-09-27T07:57:13;6.30;;;1.40;;
18720;SDS011;9489;50.948;3.114;2022-09-27T07:59:39;7.03;;;1.90;;
18720;SDS011;9489;50.948;3.114;2022-09-27T08:02:07;4.32;;;1.52;;
18720;SDS011;9489;50.948;3.114;2022-09-27T08:04:38;6.30;;;1.77;;
18720;SDS011;9489;50.948;3.114;2022-09-27T08:07:03;5.20;;;2.17;;
18720;SDS011;9489;50.948;3.114;2022-09-27T08:09:29;5.00;;;1.83;;
18720;SDS011;9489;50.948;3.114;2022-09-27T08:11:55;5.68;;;1.85;;
18720;SDS011;9489;50.948;3.114;2022-09-27T08:14:22;4.15;;;1.35;;
18720;SDS011;9489;50.948;3.114;2022-09-27T08:16:48;6.28;;;1.33;;
18720;SDS011;9489;50.948;3.114;2022-09-27T08:19:15;3.00;;;1.67;;
18720;SDS011;9489;50.948;3.114;2022-09-27T08:21:41;4.57;;;1.45;;
18720;SDS011;9489;50.948;3.114;2022-09-27T08:24:06;3.80;;;1.42;;
18720;SDS011;9489;50.948;3.114;2022-09-27T08:26:32;2.88;;;1.08;;
18720;SDS011;9489;50.948;3.114;2022-09-27T08:28:58;3.17;;;1.02;;
18720;SDS011;9489;50.948;3.114;2022-09-27T08:31:24;3.63;;;1.20;;
18720;SDS011;9489;50.948;3.114;2022-09-27T08:33:50;3.58;;;1.00;;
18720;SDS011;9489;50.948;3.114;2022-09-27T08:36:17;4.05;;;1.33;;
18720;SDS011;9489;50.948;3.114;2022-09-27T08:38:47;3.65;;;0.95;;
18720;SDS011;9489;50.948;3.114;2022-09-27T08:41:21;2.88;;;1.02;;
18720;SDS011;9489;50.948;3.114;2022-09-27T08:44:10;3.10;;;1.02;;
18720;SDS011;9489;50.948;3.114;2022-09-27T08:47:13;3.28;;;1.38;;
18720;SDS011;9489;50.948;3.114;2022-09-27T08:52:38;2.60;;;0.98;;
18720;SDS011;9489;50.948;3.114;2022-09-27T08:55:15;3.25;;;1.15;;
18720;SDS011;9489;50.948;3.114;2022-09-27T08:57:44;4.22;;;1.10;;
18720;SDS011;9489;50.948;3.114;2022-09-27T09:00:17;4.47;;;1.65;;
18720;SDS011;9489;50.948;3.114;2022-09-27T09:02:43;4.57;;;1.40;;
18720;SDS011;9489;50.948;3.114;2022-09-27T09:05:22;2.47;;;1.55;;
18720;SDS011;9489;50.948;3.114;2022-09-27T09:08:01;3.88;;;1.48;;
18720;SDS011;9489;50.948;3.114;2022-09-27T09:10:50;2.30;;;1.30;;
18720;SDS011;9489;50.948;3.114;2022-09-27T09:16:48;2.70;;;1.25;;
18720;SDS011;9489;50.948;3.114;2022-09-27T09:19:55;2.95;;;1.40;;
18720;SDS011;9489;50.948;3.114;2022-09-27T09:28:12;4.25;;;1.77;;
18720;SDS011;9489;50.948;3.114;2022-09-27T09:31:07;2.38;;;1.63;;
18720;SDS011;9489;50.948;3.114;2022-09-27T09:34:07;5.47;;;1.60;;
18720;SDS011;9489;50.948;3.114;2022-09-27T09:37:16;5.10;;;1.77;;
18720;SDS011;9489;50.948;3.114;2022-09-27T09:39:57;4.82;;;2.25;;
18720;SDS011;9489;50.948;3.114;2022-09-27T09:42:30;3.72;;;1.98;;
18720;SDS011;9489;50.948;3.114;2022-09-27T09:50:45;3.65;;;1.30;;
18720;SDS011;9489;50.948;3.114;2022-09-27T09:53:20;3.05;;;1.30;;
18720;SDS011;9489;50.948;3.114;2022-09-27T09:56:02;4.70;;;1.60;;
18720;SDS011;9489;50.948;3.114;2022-09-27T09:58:36;5.85;;;1.50;;
18720;SDS011;9489;50.948;3.114;2022-09-27T10:01:19;3.28;;;1.30;;
18720;SDS011;9489;50.948;3.114;2022-09-27T10:03:47;5.18;;;1.70;;
18720;SDS011;9489;50.948;3.114;2022-09-27T10:06:13;3.00;;;1.20;;
18720;SDS011;9489;50.948;3.114;2022-09-27T10:08:40;5.60;;;1.40;;
18720;SDS011;9489;50.948;3.114;2022-09-27T10:11:09;5.45;;;1.02;;
18720;SDS011;9489;50.948;3.114;2022-09-27T10:13:45;3.13;;;0.98;;
18720;SDS011;9489;50.948;3.114;2022-09-27T10:16:12;6.15;;;1.20;;
18720;SDS011;9489;50.948;3.114;2022-09-27T10:18:40;4.70;;;1.45;;
18720;SDS011;9489;50.948;3.114;2022-09-27T10:21:10;5.30;;;1.30;;
18720;SDS011;9489;50.948;3.114;2022-09-27T10:26:37;2.50;;;1.20;;
18720;SDS011;9489;50.948;3.114;2022-09-27T10:29:14;3.50;;;1.65;;
18720;SDS011;9489;50.948;3.114;2022-09-27T10:31:44;4.47;;;1.42;;
18720;SDS011;9489;50.948;3.114;2022-09-27T10:34:32;4.38;;;1.85;;
18720;SDS011;9489;50.948;3.114;2022-09-27T10:37:22;5.22;;;1.50;;
18720;SDS011;9489;50.948;3.114;2022-09-27T10:39:48;4.30;;;1.77;;
18720;SDS011;9489;50.948;3.114;2022-09-27T10:42:32;4.78;;;1.80;;
18720;SDS011;9489;50.948;3.114;2022-09-27T10:47:43;5.35;;;1.98;;
18720;SDS011;9489;50.948;3.114;2022-09-27T10:50:13;7.05;;;1.83;;
18720;SDS011;9489;50.948;3.114;2022-09-27T10:52:58;5.15;;;1.98;;
18720;SDS011;9489;50.948;3.114;2022-09-27T10:55:27;7.60;;;2.30;;
18720;SDS011;9489;50.948;3.114;2022-09-27T10:57:56;9.13;;;2.10;;
18720;SDS011;9489;50.948;3.114;2022-09-27T11:00:28;7.43;;;2.38;;
18720;SDS011;9489;50.948;3.114;2022-09-27T11:03:01;7.20;;;1.92;;
18720;SDS011;9489;50.948;3.114;2022-09-27T11:05:37;5.85;;;1.70;;
18720;SDS011;9489;50.948;3.114;2022-09-27T11:08:20;4.25;;;1.50;;
18720;SDS011;9489;50.948;3.114;2022-09-27T11:13:39;4.00;;;2.10;;
18720;SDS011;9489;50.948;3.114;2022-09-27T11:16:16;4.20;;;1.80;;
18720;SDS011;9489;50.948;3.114;2022-09-27T11:18:53;6.88;;;1.88;;
18720;SDS011;9489;50.948;3.114;2022-09-27T11:30:22;4.97;;;1.80;;
18720;SDS011;9489;50.948;3.114;2022-09-27T11:36:04;4.13;;;1.70;;
18720;SDS011;9489;50.948;3.114;2022-09-27T11:46:59;3.75;;;1.52;;
18720;SDS011;9489;50.948;3.114;2022-09-27T11:55:18;4.13;;;1.65;;
18720;SDS011;9489;50.948;3.114;2022-09-27T12:00:24;4.40;;;1.80;;
18720;SDS011;9489;50.948;3.114;2022-09-27T12:05:50;3.83;;;1.40;;
18720;SDS011;9489;50.948;3.114;2022-09-27T12:11:11;7.13;;;1.77;;
18720;SDS011;9489;50.948;3.114;2022-09-27T12:14:22;4.25;;;1.15;;
18720;SDS011;9489;50.948;3.114;2022-09-27T12:16:49;4.80;;;1.77;;
18720;SDS011;9489;50.948;3.114;2022-09-27T12:19:22;4.53;;;1.95;;
18720;SDS011;9489;50.948;3.114;2022-09-27T12:21:51;6.43;;;2.47;;
18720;SDS011;9489;50.948;3.114;2022-09-27T12:24:20;4.20;;;2.00;;
18720;SDS011;9489;50.948;3.114;2022-09-27T12:26:48;8.75;;;1.98;;
18720;SDS011;9489;50.948;3.114;2022-09-27T12:29:19;4.43;;;1.60;;
18720;SDS011;9489;50.948;3.114;2022-09-27T12:34:31;2.33;;;1.50;;
18720;SDS011;9489;50.948;3.114;2022-09-27T12:36:59;3.72;;;1.60;;
18720;SDS011;9489;50.948;3.114;2022-09-27T12:39:36;3.28;;;1.30;;
18720;SDS011;9489;50.948;3.114;2022-09-27T12:44:57;3.80;;;1.63;;
18720;SDS011;9489;50.948;3.114;2022-09-27T12:52:55;2.88;;;1.13;;
18720;SDS011;9489;50.948;3.114;2022-09-27T13:11:40;4.30;;;2.97;;
18720;SDS011;9489;50.948;3.114;2022-09-27T13:14:10;3.22;;;1.27;;
18720;SDS011;9489;50.948;3.114;2022-09-27T13:16:43;3.72;;;1.40;;
18720;SDS011;9489;50.948;3.114;2022-09-27T13:22:10;4.47;;;2.00;;
18720;SDS011;9489;50.948;3.114;2022-09-27T13:25:00;3.80;;;1.55;;
18720;SDS011;9489;50.948;3.114;2022-09-27T13:32:35;4.75;;;2.08;;
18720;SDS011;9489;50.948;3.114;2022-09-27T13:37:52;5.82;;;1.77;;
18720;SDS011;9489;50.948;3.114;2022-09-27T13:40:28;5.07;;;1.60;;
18720;SDS011;9489;50.948;3.114;2022-09-27T13:48:25;5.60;;;2.20;;
18720;SDS011;9489;50.948;3.114;2022-09-27T13:53:55;5.55;;;2.65;;
18720;SDS011;9489;50.948;3.114;2022-09-27T13:59:02;5.88;;;2.00;;
18720;SDS011;9489;50.948;3.114;2022-09-27T14:01:33;8.32;;;2.42;;
18720;SDS011;9489;50.948;3.114;2022-09-27T14:04:20;4.25;;;1.75;;
18720;SDS011;9489;50.948;3.114;2022-09-27T14:06:48;5.60;;;1.60;;
18720;SDS011;9489;50.948;3.114;2022-09-27T14:09:18;7.50;;;1.90;;
18720;SDS011;9489;50.948;3.114;2022-09-27T14:11:49;5.45;;;2.00;;
18720;SDS011;9489;50.948;3.114;2022-09-27T14:14:21;5.03;;;1.85;;
18720;SDS011;9489;50.948;3.114;2022-09-27T14:16:49;5.85;;;2.05;;
18720;SDS011;9489;50.948;3.114;2022-09-27T14:19:18;5.05;;;2.20;;
18720;SDS011;9489;50.948;3.114;2022-09-27T14:21:46;5.93;;;1.90;;
18720;SDS011;9489;50.948;3.114;2022-09-27T14:29:40;5.20;;;1.40;;
18720;SDS011;9489;50.948;3.114;2022-09-27T14:32:26;4.63;;;2.05;;
18720;SDS011;9489;50.948;3.114;2022-09-27T14:38:15;4.13;;;1.48;;
18720;SDS011;9489;50.948;3.114;2022-09-27T14:40:53;5.80;;;2.03;;
18720;SDS011;9489;50.948;3.114;2022-09-27T14:43:22;8.55;;;2.85;;
18720;SDS011;9489;50.948;3.114;2022-09-27T14:45:50;10.52;;;5.28;;
18720;SDS011;9489;50.948;3.114;2022-09-27T14:48:37;6.53;;;3.25;;
18720;SDS011;9489;50.948;3.114;2022-09-27T14:53:41;6.85;;;2.70;;
18720;SDS011;9489;50.948;3.114;2022-09-27T14:56:16;6.60;;;2.60;;
18720;SDS011;9489;50.948;3.114;2022-09-27T14:58:46;6.57;;;2.33;;
18720;SDS011;9489;50.948;3.114;2022-09-27T15:01:16;8.73;;;2.28;;
18720;SDS011;9489;50.948;3.114;2022-09-27T15:03:44;6.05;;;2.13;;
18720;SDS011;9489;50.948;3.114;2022-09-27T15:06:12;8.60;;;2.35;;
18720;SDS011;9489;50.948;3.114;2022-09-27T15:08:42;6.93;;;2.38;;
18720;SDS011;9489;50.948;3.114;2022-09-27T15:11:11;9.02;;;3.38;;
18720;SDS011;9489;50.948;3.114;2022-09-27T15:13:37;7.60;;;2.53;;
18720;SDS011;9489;50.948;3.114;2022-09-27T15:16:10;7.93;;;2.88;;
18720;SDS011;9489;50.948;3.114;2022-09-27T15:18:44;7.07;;;2.13;;
18720;SDS011;9489;50.948;3.114;2022-09-27T15:21:14;7.63;;;2.25;;
18720;SDS011;9489;50.948;3.114;2022-09-27T15:23:51;17.73;;;3.00;;
18720;SDS011;9489;50.948;3.114;2022-09-27T15:26:22;7.88;;;2.95;;
18720;SDS011;9489;50.948;3.114;2022-09-27T15:28:59;10.85;;;3.22;;
18720;SDS011;9489;50.948;3.114;2022-09-27T15:31:32;9.50;;;2.17;;
18720;SDS011;9489;50.948;3.114;2022-09-27T15:33:59;10.05;;;3.10;;
18720;SDS011;9489;50.948;3.114;2022-09-27T15:39:17;9.75;;;3.78;;
18720;SDS011;9489;50.948;3.114;2022-09-27T15:42:07;9.77;;;3.88;;
18720;SDS011;9489;50.948;3.114;2022-09-27T15:55:15;8.50;;;3.55;;
18720;SDS011;9489;50.948;3.114;2022-09-27T15:57:43;6.60;;;2.28;;
18720;SDS011;9489;50.948;3.114;2022-09-27T16:00:15;5.82;;;3.30;;
18720;SDS011;9489;50.948;3.114;2022-09-27T16:02:42;4.90;;;2.78;;
18720;SDS011;9489;50.948;3.114;2022-09-27T16:05:08;8.32;;;3.10;;
18720;SDS011;9489;50.948;3.114;2022-09-27T16:07:33;7.32;;;2.40;;
18720;SDS011;9489;50.948;3.114;2022-09-27T16:09:59;5.88;;;2.40;;
18720;SDS011;9489;50.948;3.114;2022-09-27T16:12:25;6.78;;;2.30;;
18720;SDS011;9489;50.948;3.114;2022-09-27T16:14:54;8.15;;;4.07;;
18720;SDS011;9489;50.948;3.114;2022-09-27T16:17:20;8.98;;;6.38;;
18720;SDS011;9489;50.948;3.114;2022-09-27T16:19:46;13.27;;;8.32;;
18720;SDS011;9489;50.948;3.114;2022-09-27T16:22:12;8.25;;;3.40;;
18720;SDS011;9489;50.948;3.114;2022-09-27T16:24:37;4.95;;;3.15;;
18720;SDS011;9489;50.948;3.114;2022-09-27T16:27:03;8.32;;;3.15;;
18720;SDS011;9489;50.948;3.114;2022-09-27T16:29:29;6.82;;;3.10;;
18720;SDS011;9489;50.948;3.114;2022-09-27T16:31:54;7.05;;;3.40;;
18720;SDS011;9489;50.948;3.114;2022-09-27T16:34:21;5.80;;;2.95;;
18720;SDS011;9489;50.948;3.114;2022-09-27T16:36:48;5.35;;;2.95;;
18720;SDS011;9489;50.948;3.114;2022-09-27T16:39:13;8.70;;;2.88;;
18720;SDS011;9489;50.948;3.114;2022-09-27T16:41:39;9.30;;;3.83;;
18720;SDS011;9489;50.948;3.114;2022-09-27T16:44:12;5.45;;;3.58;;
18720;SDS011;9489;50.948;3.114;2022-09-27T16:46:41;4.95;;;2.50;;
18720;SDS011;9489;50.948;3.114;2022-09-27T16:49:10;4.97;;;3.03;;
18720;SDS011;9489;50.948;3.114;2022-09-27T16:51:56;2.38;;;1.60;;
18720;SDS011;9489;50.948;3.114;2022-09-27T16:54:24;3.03;;;2.53;;
18720;SDS011;9489;50.948;3.114;2022-09-27T16:56:53;3.72;;;2.25;;
18720;SDS011;9489;50.948;3.114;2022-09-27T16:59:19;3.90;;;1.67;;
18720;SDS011;9489;50.948;3.114;2022-09-27T17:01:45;3.45;;;1.30;;
18720;SDS011;9489;50.948;3.114;2022-09-27T17:04:11;3.03;;;1.55;;
18720;SDS011;9489;50.948;3.114;2022-09-27T17:06:38;2.75;;;1.63;;
18720;SDS011;9489;50.948;3.114;2022-09-27T17:09:04;2.88;;;1.30;;
18720;SDS011;9489;50.948;3.114;2022-09-27T17:11:30;3.65;;;1.42;;
18720;SDS011;9489;50.948;3.114;2022-09-27T17:13:56;2.33;;;1.30;;
18720;SDS011;9489;50.948;3.114;2022-09-27T17:16:23;3.40;;;1.98;;
18720;SDS011;9489;50.948;3.114;2022-09-27T17:18:49;3.00;;;1.15;;
18720;SDS011;9489;50.948;3.114;2022-09-27T17:21:15;3.22;;;1.70;;
18720;SDS011;9489;50.948;3.114;2022-09-27T17:23:41;3.38;;;1.77;;
18720;SDS011;9489;50.948;3.114;2022-09-27T17:26:08;1.38;;;1.20;;
18720;SDS011;9489;50.948;3.114;2022-09-27T17:28:42;1.83;;;1.40;;
18720;SDS011;9489;50.948;3.114;2022-09-27T17:31:08;2.28;;;1.10;;
18720;SDS011;9489;50.948;3.114;2022-09-27T17:33:36;5.30;;;1.60;;
18720;SDS011;9489;50.948;3.114;2022-09-27T17:36:10;1.15;;;1.05;;
18720;SDS011;9489;50.948;3.114;2022-09-27T17:38:41;2.40;;;1.80;;
18720;SDS011;9489;50.948;3.114;2022-09-27T17:41:08;2.70;;;1.92;;
18720;SDS011;9489;50.948;3.114;2022-09-27T17:43:37;3.60;;;2.10;;
18720;SDS011;9489;50.948;3.114;2022-09-27T17:46:04;3.00;;;2.15;;
18720;SDS011;9489;50.948;3.114;2022-09-27T17:48:32;2.28;;;2.05;;
18720;SDS011;9489;50.948;3.114;2022-09-27T17:51:16;1.98;;;1.77;;
18720;SDS011;9489;50.948;3.114;2022-09-27T17:53:42;2.17;;;2.03;;
18720;SDS011;9489;50.948;3.114;2022-09-27T17:56:08;3.33;;;1.98;;
18720;SDS011;9489;50.948;3.114;2022-09-27T17:58:34;2.75;;;2.30;;
18720;SDS011;9489;50.948;3.114;2022-09-27T18:01:03;3.03;;;2.40;;
18720;SDS011;9489;50.948;3.114;2022-09-27T18:03:31;3.55;;;2.88;;
18720;SDS011;9489;50.948;3.114;2022-09-27T18:05:57;3.05;;;2.80;;
18720;SDS011;9489;50.948;3.114;2022-09-27T18:08:24;3.72;;;3.42;;
18720;SDS011;9489;50.948;3.114;2022-09-27T18:10:53;3.20;;;2.92;;
18720;SDS011;9489;50.948;3.114;2022-09-27T18:13:19;3.65;;;2.28;;
18720;SDS011;9489;50.948;3.114;2022-09-27T18:15:53;3.92;;;3.13;;
18720;SDS011;9489;50.948;3.114;2022-09-27T18:18:22;3.95;;;2.30;;